createdAt,value
2023-03-01T00:01:18.773Z,33.92
2023-03-01T00:03:46.230Z,33.75
2023-03-01T00:06:13.747Z,35.92
2023-03-01T00:08:41.031Z,30.42
2023-03-01T00:11:13.998Z,30.17
2023-03-01T00:13:41.567Z,34.05
2023-03-01T00:16:09.856Z,32.10
2023-03-01T00:18:37.264Z,34.10
2023-03-01T00:21:04.503Z,33.20
2023-03-01T00:23:31.528Z,33.10
2023-03-01T00:25:58.931Z,33.08
2023-03-01T00:28:26.031Z,33.90
2023-03-01T00:30:53.342Z,33.05
2023-03-01T00:33:20.577Z,33.13
2023-03-01T00:35:47.687Z,31.98
2023-03-01T00:38:14.767Z,34.47
2023-03-01T00:40:41.843Z,34.10
2023-03-01T00:43:09.618Z,30.38
2023-03-01T00:45:36.690Z,30.38
2023-03-01T00:48:04.960Z,32.85
2023-03-01T00:50:31.973Z,30.00
2023-03-01T00:52:59.095Z,32.22
2023-03-01T00:55:27.153Z,33.17
2023-03-01T00:57:54.265Z,33.17
2023-03-01T01:00:21.550Z,32.00
2023-03-01T01:02:48.890Z,31.95
2023-03-01T01:05:15.974Z,34.58
2023-03-01T01:07:43.013Z,33.97
2023-03-01T01:10:13.816Z,32.75
2023-03-01T01:12:40.822Z,35.53
2023-03-01T01:15:08.119Z,34.13
2023-03-01T01:17:38.427Z,31.27
2023-03-01T01:20:05.850Z,34.90
2023-03-01T01:22:32.918Z,32.45
2023-03-01T01:25:00.010Z,33.88
2023-03-01T01:27:27.027Z,34.45
2023-03-01T01:29:56.861Z,33.50
2023-03-01T01:32:26.121Z,33.20
2023-03-01T01:34:54.161Z,34.55
2023-03-01T01:37:21.377Z,34.50
2023-03-01T01:39:48.488Z,33.97
2023-03-01T01:42:17.346Z,31.73
2023-03-01T01:44:47.164Z,35.22
2023-03-01T01:47:19.753Z,32.53
2023-03-01T01:49:55.390Z,33.13
2023-03-01T01:52:27.739Z,34.95
2023-03-01T01:54:57.757Z,35.25
2023-03-01T01:57:29.378Z,30.83
2023-03-01T01:59:58.079Z,32.40
2023-03-01T02:02:25.643Z,35.78
2023-03-01T02:04:57.321Z,33.22
2023-03-01T02:07:25.350Z,30.20
2023-03-01T02:09:53.831Z,31.23
2023-03-01T02:12:23.144Z,34.67
2023-03-01T02:14:50.352Z,35.35
2023-03-01T02:17:18.319Z,38.45
2023-03-01T02:19:51.239Z,32.42
2023-03-01T02:22:26.394Z,31.98
2023-03-01T02:25:19.498Z,34.13
2023-03-01T02:28:01.528Z,34.38
2023-03-01T02:30:28.907Z,32.60
2023-03-01T02:33:03.481Z,34.40
2023-03-01T02:35:32.450Z,36.20
2023-03-01T02:38:01.587Z,32.45
2023-03-01T02:40:30.132Z,35.22
2023-03-01T02:42:58.042Z,34.20
2023-03-01T02:45:25.412Z,33.53
2023-03-01T02:47:55.037Z,29.17
2023-03-01T02:50:31.228Z,32.35
2023-03-01T02:53:03.510Z,35.03
2023-03-01T02:55:30.534Z,35.28
2023-03-01T02:57:57.785Z,32.67
2023-03-01T03:00:28.224Z,32.58
2023-03-01T03:02:57.739Z,35.05
2023-03-01T03:05:26.603Z,31.45
2023-03-01T03:07:53.968Z,37.53
2023-03-01T03:10:28.535Z,34.83
2023-03-01T03:12:57.250Z,34.13
2023-03-01T03:15:24.583Z,35.72
2023-03-01T03:17:52.209Z,35.92
2023-03-01T03:20:20.430Z,33.08
2023-03-01T03:22:51.739Z,32.85
2023-03-01T03:25:19.388Z,33.83
2023-03-01T03:27:47.186Z,32.83
2023-03-01T03:30:19.343Z,34.10
2023-03-01T03:32:53.751Z,34.60
2023-03-01T03:35:22.115Z,34.53
2023-03-01T03:38:04.434Z,35.75
2023-03-01T03:40:33.669Z,31.73
2023-03-01T03:43:00.712Z,32.55
2023-03-01T03:45:27.820Z,33.05
2023-03-01T03:47:54.908Z,33.20
2023-03-01T03:50:21.996Z,30.80
2023-03-01T03:52:49.025Z,37.45
2023-03-01T03:55:20.125Z,35.40
2023-03-01T03:57:54.967Z,32.97
2023-03-01T04:00:24.751Z,33.88
2023-03-01T04:02:52.438Z,32.08
2023-03-01T04:05:20.254Z,38.85
2023-03-01T04:07:47.367Z,32.70
2023-03-01T04:10:15.919Z,31.83
2023-03-01T04:12:44.136Z,36.08
2023-03-01T04:15:14.866Z,33.83
2023-03-01T04:17:42.364Z,32.17
2023-03-01T04:20:13.706Z,34.08
2023-03-01T04:22:41.497Z,35.15
2023-03-01T04:25:08.854Z,32.25
2023-03-01T04:27:36.084Z,35.15
2023-03-01T04:30:03.518Z,34.80
2023-03-01T04:32:30.629Z,33.42
2023-03-01T04:34:57.693Z,37.10
2023-03-01T04:37:25.034Z,34.08
2023-03-01T04:39:52.131Z,40.20
2023-03-01T04:42:19.555Z,34.25
2023-03-01T04:44:47.117Z,36.30
2023-03-01T04:47:14.618Z,31.73
2023-03-01T04:49:41.611Z,34.53
2023-03-01T04:52:08.626Z,35.90
2023-03-01T04:54:36.409Z,36.83
2023-03-01T04:57:04.339Z,35.33
2023-03-01T04:59:31.428Z,33.30
2023-03-01T05:01:58.740Z,33.17
2023-03-01T05:04:26.461Z,35.72
2023-03-01T05:06:54.542Z,35.20
2023-03-01T05:09:21.706Z,34.10
2023-03-01T05:11:48.819Z,34.17
2023-03-01T05:14:15.866Z,37.30
2023-03-01T05:16:42.974Z,35.45
2023-03-01T05:19:16.190Z,35.90
2023-03-01T05:22:02.802Z,33.03
2023-03-01T05:24:31.210Z,36.30
2023-03-01T05:26:58.292Z,33.90
2023-03-01T05:29:26.299Z,35.00
2023-03-01T05:31:57.318Z,35.85
2023-03-01T05:34:26.262Z,36.03
2023-03-01T05:36:54.236Z,34.38
2023-03-01T05:39:25.257Z,35.08
2023-03-01T05:41:56.388Z,33.88
2023-03-01T05:44:23.597Z,37.95
2023-03-01T05:46:51.084Z,35.88
2023-03-01T05:49:18.216Z,35.13
2023-03-01T05:51:48.885Z,31.88
2023-03-01T05:54:15.976Z,35.42
2023-03-01T05:56:43.066Z,37.72
2023-03-01T05:59:10.226Z,36.38
2023-03-01T06:01:37.509Z,34.22
2023-03-01T06:04:05.150Z,36.80
2023-03-01T06:06:35.560Z,39.40
2023-03-01T06:09:02.600Z,35.88
2023-03-01T06:11:29.614Z,35.63
2023-03-01T06:13:56.623Z,38.83
2023-03-01T06:16:23.660Z,35.17
2023-03-01T06:18:50.703Z,40.05
2023-03-01T06:21:17.695Z,36.72
2023-03-01T06:23:44.717Z,37.63
2023-03-01T06:26:11.735Z,36.28
2023-03-01T06:28:38.786Z,35.15
2023-03-01T06:31:09.579Z,37.10
2023-03-01T06:33:37.044Z,38.67
2023-03-01T06:36:04.258Z,37.33
2023-03-01T06:38:31.411Z,31.80
2023-03-01T06:40:58.502Z,36.47
2023-03-01T06:43:25.659Z,36.75
2023-03-01T06:45:52.725Z,42.20
2023-03-01T06:48:19.834Z,40.47
2023-03-01T06:50:46.981Z,38.00
2023-03-01T06:53:14.100Z,37.53
2023-03-01T06:55:41.113Z,37.55
2023-03-01T06:58:08.144Z,37.97
2023-03-01T07:00:35.190Z,39.80
2023-03-01T07:03:03.474Z,34.63
2023-03-01T07:05:31.263Z,34.72
2023-03-01T07:07:58.601Z,39.95
2023-03-01T07:10:25.808Z,39.65
2023-03-01T07:12:55.772Z,36.35
2023-03-01T07:15:22.780Z,35.50
2023-03-01T07:17:51.634Z,37.97
2023-03-01T07:20:19.388Z,37.13
2023-03-01T07:22:46.466Z,36.80
2023-03-01T07:25:13.472Z,38.78
2023-03-01T07:27:41.250Z,37.42
2023-03-01T07:30:08.652Z,35.72
2023-03-01T07:32:35.788Z,34.97
2023-03-01T07:35:02.904Z,36.33
2023-03-01T07:37:29.969Z,35.25
2023-03-01T07:39:56.974Z,42.20
2023-03-01T07:42:23.956Z,36.22
2023-03-01T07:44:51.152Z,35.88
2023-03-01T07:47:18.194Z,33.60
2023-03-01T07:49:45.285Z,37.10
2023-03-01T07:52:12.926Z,34.78
2023-03-01T07:54:40.349Z,39.30
2023-03-01T07:57:07.508Z,36.03
2023-03-01T07:59:34.710Z,36.17
2023-03-01T08:02:01.811Z,36.38
2023-03-01T08:04:29.001Z,43.83
2023-03-01T08:06:56.578Z,37.33
2023-03-01T08:09:23.710Z,41.15
2023-03-01T08:11:50.859Z,36.15
2023-03-01T08:14:18.158Z,37.13
2023-03-01T08:16:45.265Z,39.17
2023-03-01T08:19:13.577Z,35.90
2023-03-01T08:21:40.760Z,36.33
2023-03-01T08:24:08.402Z,38.55
2023-03-01T08:26:35.635Z,37.33
2023-03-01T08:29:02.706Z,33.67
2023-03-01T08:31:31.595Z,37.55
2023-03-01T08:34:02.151Z,36.88
2023-03-01T08:36:30.935Z,42.40
2023-03-01T08:38:58.433Z,37.35
2023-03-01T08:41:25.670Z,36.15
2023-03-01T08:43:53.721Z,37.45
2023-03-01T08:46:20.770Z,35.67
2023-03-01T08:48:47.816Z,36.50
2023-03-01T08:51:16.947Z,39.47
2023-03-01T08:53:44.325Z,36.38
2023-03-01T08:56:11.961Z,40.00
2023-03-01T08:58:40.702Z,37.22
2023-03-01T09:01:11.544Z,40.47
2023-03-01T09:03:38.888Z,36.60
2023-03-01T09:06:07.286Z,38.03
2023-03-01T09:08:36.590Z,41.88
2023-03-01T09:11:04.475Z,37.42
2023-03-01T09:13:34.485Z,37.13
2023-03-01T09:16:03.105Z,38.00
2023-03-01T09:18:30.154Z,35.55
2023-03-01T09:21:10.733Z,36.45
2023-03-01T09:23:39.796Z,36.90
2023-03-01T09:26:10.302Z,40.60
2023-03-01T09:28:37.777Z,35.38
2023-03-01T09:31:05.316Z,37.85
2023-03-01T09:33:32.776Z,35.95
2023-03-01T09:36:04.002Z,32.45
2023-03-01T09:38:31.443Z,36.47
2023-03-01T09:40:58.682Z,40.65
2023-03-01T09:43:25.716Z,35.85
2023-03-01T09:45:54.463Z,33.95
2023-03-01T09:48:24.373Z,40.45
2023-03-01T09:50:51.945Z,37.13
2023-03-01T09:53:23.284Z,36.67
2023-03-01T09:55:57.058Z,35.13
2023-03-01T10:00:51.579Z,37.38
2023-03-01T10:03:24.855Z,35.63
2023-03-01T10:05:56.717Z,35.05
2023-03-01T10:08:30.898Z,35.88
2023-03-01T10:10:58.069Z,39.05
2023-03-01T10:13:31.171Z,36.97
2023-03-01T10:15:59.288Z,36.17
2023-03-01T10:18:28.735Z,34.10
2023-03-01T10:21:02.677Z,33.05
2023-03-01T10:23:31.658Z,36.03
2023-03-01T10:26:16.303Z,32.47
2023-03-01T10:29:03.322Z,36.08
2023-03-01T10:31:43.868Z,39.47
2023-03-01T10:34:18.835Z,33.67
2023-03-01T10:36:49.025Z,35.38
2023-03-01T10:39:21.022Z,36.28
2023-03-01T10:41:56.158Z,34.40
2023-03-01T10:44:40.170Z,34.63
2023-03-01T10:47:14.275Z,34.08
2023-03-01T10:49:52.849Z,36.30
2023-03-01T10:52:21.284Z,35.30
2023-03-01T10:55:02.479Z,35.45
2023-03-01T10:57:31.295Z,38.83
2023-03-01T11:00:18.626Z,37.03
2023-03-01T11:02:48.465Z,33.65
2023-03-01T11:05:18.425Z,36.70
2023-03-01T11:07:49.645Z,36.30
2023-03-01T11:10:20.915Z,39.63
2023-03-01T11:12:48.036Z,35.53
2023-03-01T11:15:41.300Z,40.15
2023-03-01T11:18:20.262Z,36.47
2023-03-01T11:20:47.883Z,35.70
2023-03-01T11:23:15.801Z,38.72
2023-03-01T11:25:49.432Z,36.22
2023-03-01T11:28:18.637Z,34.40
2023-03-01T11:31:05.544Z,36.38
2023-03-01T11:33:37.385Z,36.97
2023-03-01T11:36:24.680Z,36.33
2023-03-01T11:38:51.879Z,37.22
2023-03-01T11:41:22.702Z,36.22
2023-03-01T11:43:55.644Z,38.20
2023-03-01T11:46:35.051Z,36.77
2023-03-01T11:49:20.997Z,34.33
2023-03-01T11:51:53.962Z,36.88
2023-03-01T11:54:30.243Z,35.37
2023-03-01T11:56:59.657Z,38.35
2023-03-01T11:59:36.509Z,33.47
2023-03-01T12:02:06.377Z,35.47
2023-03-01T12:04:36.230Z,34.83
2023-03-01T12:07:03.440Z,33.03
2023-03-01T12:09:46.046Z,32.90
2023-03-01T12:12:22.297Z,38.13
2023-03-01T12:14:56.829Z,37.30
2023-03-01T12:17:30.135Z,37.28
2023-03-01T12:20:15.969Z,27.50
2023-03-01T12:22:49.285Z,35.25
2023-03-01T12:25:19.018Z,33.47
2023-03-01T12:28:04.243Z,33.65
2023-03-01T12:30:46.298Z,35.25
2023-03-01T12:33:24.341Z,36.08
2023-03-01T12:35:51.347Z,41.75
2023-03-01T12:38:18.329Z,35.13
2023-03-01T12:41:00.432Z,33.03
2023-03-01T12:43:38.101Z,34.28
2023-03-01T12:46:26.412Z,34.53
2023-03-01T12:49:08.537Z,32.92
2023-03-01T12:51:37.209Z,32.22
2023-03-01T12:54:08.652Z,35.47
2023-03-01T12:56:39.110Z,34.28
2023-03-01T12:59:24.980Z,35.53
2023-03-01T13:01:58.025Z,33.35
2023-03-01T13:04:32.035Z,32.40
2023-03-01T13:07:25.676Z,34.75
2023-03-01T13:09:52.892Z,36.58
2023-03-01T13:12:38.871Z,33.10
2023-03-01T13:15:06.717Z,34.88
2023-03-01T13:17:35.289Z,32.85
2023-03-01T13:20:02.843Z,32.15
2023-03-01T13:22:32.418Z,40.70
2023-03-01T13:25:03.377Z,32.55
2023-03-01T13:27:30.558Z,32.75
2023-03-01T13:30:04.476Z,34.78
2023-03-01T13:35:15.972Z,36.38
2023-03-01T13:37:43.390Z,40.35
2023-03-01T13:40:19.938Z,32.25
2023-03-01T13:42:56.398Z,34.20
2023-03-01T13:45:39.975Z,31.98
2023-03-01T13:48:10.507Z,33.05
2023-03-01T13:50:44.899Z,29.33
2023-03-01T13:53:13.348Z,32.08
2023-03-01T13:55:51.214Z,34.88
2023-03-01T13:58:21.087Z,34.63
2023-03-01T14:00:48.290Z,30.08
2023-03-01T14:03:19.953Z,27.50
2023-03-01T14:06:15.903Z,30.25
2023-03-01T14:08:44.472Z,32.17
2023-03-01T14:11:30.416Z,32.67
2023-03-01T14:14:16.276Z,31.17
2023-03-01T14:16:49.297Z,28.25
2023-03-01T14:19:32.600Z,31.37
2023-03-01T14:22:05.309Z,29.58
2023-03-01T14:24:33.868Z,33.90
2023-03-01T14:27:02.736Z,34.47
2023-03-01T14:29:40.081Z,29.08
2023-03-01T14:32:19.934Z,29.73
2023-03-01T14:34:48.613Z,30.35
2023-03-01T14:37:35.180Z,26.85
2023-03-01T14:40:03.361Z,34.67
2023-03-01T14:42:32.872Z,29.20
2023-03-01T14:45:02.035Z,27.67
2023-03-01T14:47:33.895Z,36.67
2023-03-01T14:50:09.590Z,30.70
2023-03-01T14:52:38.244Z,28.58
2023-03-01T14:55:14.546Z,28.95
2023-03-01T14:57:44.638Z,30.05
2023-03-01T15:00:12.942Z,29.73
2023-03-01T15:02:40.501Z,28.67
2023-03-01T15:05:08.942Z,30.55
2023-03-01T15:07:38.407Z,28.20
2023-03-01T15:10:06.677Z,28.25
2023-03-01T15:12:37.956Z,28.05
2023-03-01T15:15:21.942Z,29.33
2023-03-01T15:17:56.091Z,28.35
2023-03-01T15:20:26.726Z,32.05
2023-03-01T15:22:54.754Z,28.65
2023-03-01T15:25:24.534Z,26.80
2023-03-01T15:27:52.675Z,29.38
2023-03-01T15:30:22.055Z,28.65
2023-03-01T15:32:49.076Z,27.25
2023-03-01T15:35:42.746Z,27.10
2023-03-01T15:38:30.292Z,28.50
2023-03-01T15:40:58.199Z,32.50
2023-03-01T15:43:44.002Z,28.92
2023-03-01T15:46:20.355Z,31.95
2023-03-01T15:48:50.292Z,29.45
2023-03-01T15:51:17.599Z,27.73
2023-03-01T15:53:54.205Z,30.65
2023-03-01T15:56:21.982Z,27.17
2023-03-01T15:58:49.149Z,28.10
2023-03-01T16:01:17.769Z,30.35
2023-03-01T16:03:45.243Z,28.90
2023-03-01T16:06:12.968Z,33.20
2023-03-01T16:08:40.240Z,26.42
2023-03-01T16:11:12.282Z,28.58
2023-03-01T16:13:39.323Z,27.85
2023-03-01T16:16:06.643Z,26.83
2023-03-01T16:18:33.676Z,25.42
2023-03-01T16:21:01.336Z,28.75
2023-03-01T16:23:28.397Z,25.98
2023-03-01T16:25:55.404Z,29.83
2023-03-01T16:28:22.497Z,33.78
2023-03-01T16:30:50.096Z,29.38
2023-03-01T16:33:33.586Z,30.38
2023-03-01T16:36:03.039Z,30.77
2023-03-01T16:38:30.339Z,30.13
2023-03-01T16:40:57.395Z,30.40
2023-03-01T16:43:24.480Z,31.55
2023-03-01T16:45:51.678Z,30.55
2023-03-01T16:48:18.767Z,29.70
2023-03-01T16:50:45.849Z,30.73
2023-03-01T16:53:13.066Z,32.47
2023-03-01T16:55:46.146Z,29.65
2023-03-01T16:58:13.329Z,31.77
2023-03-01T17:00:40.459Z,32.08
2023-03-01T17:03:07.597Z,32.50
2023-03-01T17:05:34.670Z,30.80
2023-03-01T17:08:01.681Z,27.67
2023-03-01T17:10:28.750Z,33.03
2023-03-01T17:12:55.827Z,31.10
2023-03-01T17:15:22.834Z,27.83
2023-03-01T17:17:51.693Z,35.58
2023-03-01T17:20:18.951Z,31.70
2023-03-01T17:22:45.954Z,38.70
2023-03-01T17:25:13.251Z,31.33
2023-03-01T17:27:40.525Z,32.45
2023-03-01T17:30:08.484Z,35.92
2023-03-01T17:32:35.645Z,33.55
2023-03-01T17:35:02.813Z,31.63
2023-03-01T17:37:29.816Z,32.05
2023-03-01T17:39:56.855Z,35.42
2023-03-01T17:42:23.902Z,35.17
2023-03-01T17:44:51.041Z,36.80
2023-03-01T17:47:18.236Z,40.60
2023-03-01T17:49:45.501Z,42.40
2023-03-01T17:52:12.559Z,44.35
2023-03-01T17:54:40.239Z,42.78
2023-03-01T17:57:07.366Z,39.30
2023-03-01T17:59:37.109Z,44.60
2023-03-01T18:02:04.455Z,44.88
2023-03-01T18:04:32.475Z,43.65
2023-03-01T18:06:59.544Z,46.08
2023-03-01T18:09:28.211Z,48.85
2023-03-01T18:11:55.369Z,42.83
2023-03-01T18:14:22.498Z,45.97
2023-03-01T18:16:49.578Z,48.63
2023-03-01T18:19:16.637Z,49.67
2023-03-01T18:21:44.001Z,45.78
2023-03-01T18:24:11.207Z,50.85
2023-03-01T18:26:40.179Z,46.92
2023-03-01T18:29:08.098Z,48.63
2023-03-01T18:31:35.205Z,47.00
2023-03-01T18:34:02.440Z,50.30
2023-03-01T18:36:31.608Z,48.40
2023-03-01T18:38:58.845Z,50.42
2023-03-01T18:41:27.719Z,47.53
2023-03-01T18:43:55.835Z,47.63
2023-03-01T18:46:23.127Z,46.38
2023-03-01T18:48:50.257Z,57.50
2023-03-01T18:51:18.767Z,61.80
2023-03-01T18:53:46.011Z,59.40
2023-03-01T18:56:13.506Z,52.03
2023-03-01T18:58:42.763Z,48.03
2023-03-01T19:01:13.951Z,50.58
2023-03-01T19:03:41.086Z,51.05
2023-03-01T19:06:08.126Z,51.78
2023-03-01T19:08:35.240Z,51.13
2023-03-01T19:11:03.674Z,50.83
2023-03-01T19:13:30.884Z,49.65
2023-03-01T19:16:05.488Z,51.28
2023-03-01T19:18:32.839Z,51.20
2023-03-01T19:21:03.826Z,58.35
2023-03-01T19:23:34.697Z,59.97
2023-03-01T19:26:02.839Z,49.42
2023-03-01T19:28:30.316Z,50.60
2023-03-01T19:31:04.620Z,51.78
2023-03-01T19:33:32.440Z,51.75
2023-03-01T19:35:59.547Z,50.83
2023-03-01T19:38:26.849Z,53.17
2023-03-01T19:40:54.272Z,54.38
2023-03-01T19:43:21.499Z,54.63
2023-03-01T19:45:52.026Z,55.75
2023-03-01T19:48:19.092Z,57.90
2023-03-01T19:50:46.605Z,58.50
2023-03-01T19:53:14.076Z,51.65
2023-03-01T19:55:41.392Z,60.83
2023-03-01T19:58:10.359Z,51.30
2023-03-01T20:00:38.264Z,54.17
2023-03-01T20:03:05.811Z,53.50
2023-03-01T20:05:37.176Z,58.17
2023-03-01T20:08:05.881Z,48.42
2023-03-01T20:10:34.309Z,50.83
2023-03-01T20:13:04.525Z,52.08
2023-03-01T20:15:31.794Z,37.22
2023-03-01T20:17:58.989Z,41.45
2023-03-01T20:20:26.039Z,38.15
2023-03-01T20:22:53.130Z,38.55
2023-03-01T20:25:20.178Z,41.00
2023-03-01T20:27:47.532Z,40.90
2023-03-01T20:30:15.783Z,39.03
2023-03-01T20:32:43.160Z,40.67
2023-03-01T20:35:10.780Z,39.33
2023-03-01T20:37:38.176Z,42.10
2023-03-01T20:40:05.670Z,42.40
2023-03-01T20:42:32.728Z,35.88
2023-03-01T20:44:59.815Z,39.38
2023-03-01T20:47:26.962Z,34.83
2023-03-01T20:49:54.361Z,44.13
2023-03-01T20:52:21.454Z,35.90
2023-03-01T20:54:48.614Z,43.63
2023-03-01T20:57:15.625Z,37.03
2023-03-01T20:59:42.740Z,36.55
2023-03-01T21:02:11.338Z,41.50
2023-03-01T21:04:38.476Z,38.28
2023-03-01T21:07:05.547Z,35.60
2023-03-01T21:09:32.654Z,29.77
2023-03-01T21:11:59.714Z,35.30
2023-03-01T21:14:27.046Z,35.95
2023-03-01T21:16:54.565Z,36.65
2023-03-01T21:19:22.173Z,36.40
2023-03-01T21:21:49.915Z,37.72
2023-03-01T21:24:17.168Z,40.67
2023-03-01T21:26:44.828Z,37.83
2023-03-01T21:29:11.896Z,40.65
2023-03-01T21:31:38.961Z,35.78
2023-03-01T21:34:06.963Z,35.42
2023-03-01T21:36:35.079Z,37.72
2023-03-01T21:39:02.413Z,35.58
2023-03-01T21:41:30.805Z,37.47
2023-03-01T21:44:00.365Z,36.88
2023-03-01T21:46:28.564Z,37.65
2023-03-01T21:48:55.974Z,38.47
2023-03-01T21:51:24.048Z,35.55
2023-03-01T21:53:51.180Z,37.50
2023-03-01T21:56:19.421Z,36.58
2023-03-01T21:58:46.597Z,39.88
2023-03-01T22:01:17.861Z,38.75
2023-03-01T22:03:45.767Z,37.15
2023-03-01T22:06:19.118Z,38.65
2023-03-01T22:08:50.893Z,38.75
2023-03-01T22:11:19.215Z,38.33
2023-03-01T22:13:51.956Z,35.00
2023-03-01T22:16:20.457Z,38.08
2023-03-01T22:18:47.594Z,40.53
2023-03-01T22:21:15.406Z,40.78
2023-03-01T22:23:43.202Z,39.55
2023-03-01T22:26:20.350Z,38.53
2023-03-01T22:28:47.355Z,36.38
2023-03-01T22:31:14.468Z,41.90
2023-03-01T22:33:41.565Z,39.60
2023-03-01T22:36:08.905Z,46.95
2023-03-01T22:38:35.918Z,40.75
2023-03-01T22:41:03.993Z,39.08
2023-03-01T22:43:31.266Z,39.65
2023-03-01T22:45:58.366Z,41.42
2023-03-01T22:48:25.757Z,38.17
2023-03-01T22:50:53.247Z,47.20
2023-03-01T22:53:20.284Z,40.65
2023-03-01T22:55:47.375Z,42.50
2023-03-01T22:58:14.415Z,43.70
2023-03-01T23:00:41.444Z,42.20
2023-03-01T23:03:08.597Z,40.65
2023-03-01T23:05:35.902Z,40.65
2023-03-01T23:08:03.002Z,44.25
2023-03-01T23:10:30.052Z,41.92
2023-03-01T23:12:57.545Z,39.80
2023-03-01T23:15:24.696Z,40.35
2023-03-01T23:17:51.744Z,39.85
2023-03-01T23:20:18.874Z,41.80
2023-03-01T23:22:45.871Z,40.55
2023-03-01T23:25:13.154Z,40.95
2023-03-01T23:27:40.246Z,41.15
2023-03-01T23:30:08.177Z,44.95
2023-03-01T23:32:40.332Z,43.08
2023-03-01T23:35:09.156Z,42.42
2023-03-01T23:37:36.226Z,44.65
2023-03-01T23:40:05.990Z,41.75
2023-03-01T23:42:33.795Z,46.35
2023-03-01T23:45:00.897Z,45.10
2023-03-01T23:47:28.007Z,43.60
2023-03-01T23:49:57.109Z,39.83
2023-03-01T23:52:24.482Z,43.28
2023-03-01T23:54:51.871Z,43.28
2023-03-01T23:57:19.487Z,41.30
2023-03-01T23:59:46.570Z,43.22
